createdAt,value
2018-12-09T00:01:26.756Z,7.07
2018-12-09T00:03:59.662Z,3.20
2018-12-09T00:06:32.601Z,15.63
2018-12-09T00:09:03.411Z,16.13
2018-12-09T00:11:34.276Z,7.83
2018-12-09T00:14:05.026Z,6.90
2018-12-09T00:16:35.967Z,11.90
2018-12-09T00:19:06.876Z,7.67
2018-12-09T00:21:37.808Z,5.60
2018-12-09T00:24:08.775Z,11.23
2018-12-09T00:26:39.924Z,11.17
2018-12-09T00:29:10.865Z,3.17
2018-12-09T00:31:41.730Z,5.67
2018-12-09T00:34:12.550Z,6.40
2018-12-09T00:36:44.310Z,15.70
2018-12-09T00:39:15.295Z,6.63
2018-12-09T00:41:46.276Z,6.43
2018-12-09T00:44:17.134Z,15.73
2018-12-09T00:46:48.070Z,8.43
2018-12-09T00:49:18.925Z,15.50
2018-12-09T00:51:49.864Z,4.07
2018-12-09T00:54:20.938Z,5.13
2018-12-09T00:56:51.826Z,16.17
2018-12-09T00:59:22.611Z,4.57
2018-12-09T01:01:53.419Z,10.40
2018-12-09T01:04:24.215Z,7.13
2018-12-09T01:06:55.195Z,14.40
2018-12-09T01:09:26.061Z,8.03
2018-12-09T01:11:56.981Z,4.27
2018-12-09T01:14:27.831Z,10.17
2018-12-09T01:16:58.771Z,4.03
2018-12-09T01:19:29.798Z,5.17
2018-12-09T01:22:00.710Z,10.77
2018-12-09T01:24:31.656Z,9.77
2018-12-09T01:27:02.495Z,14.93
2018-12-09T01:29:33.260Z,5.90
2018-12-09T01:32:04.521Z,13.47
2018-12-09T01:34:35.319Z,5.40
2018-12-09T01:37:06.270Z,6.13
2018-12-09T01:39:37.031Z,11.93
2018-12-09T01:42:08.103Z,6.53
2018-12-09T01:44:38.960Z,3.47
2018-12-09T01:47:09.932Z,16.67
2018-12-09T01:49:40.830Z,9.67
2018-12-09T01:52:11.762Z,8.57
2018-12-09T01:54:42.761Z,12.17
2018-12-09T01:57:13.821Z,7.20
2018-12-09T01:59:44.749Z,10.77
2018-12-09T02:02:15.696Z,6.83
2018-12-09T02:04:46.575Z,8.43
2018-12-09T02:07:17.641Z,16.63
2018-12-09T02:09:48.474Z,5.90
2018-12-09T02:12:19.301Z,5.67
2018-12-09T02:14:50.265Z,12.37
2018-12-09T02:17:21.002Z,9.80
2018-12-09T02:19:52.081Z,7.67
2018-12-09T02:22:22.961Z,10.80
2018-12-09T02:24:53.980Z,9.13
2018-12-09T02:27:25.025Z,12.67
2018-12-09T02:29:56.390Z,7.90
2018-12-09T02:32:27.406Z,4.47
2018-12-09T02:34:59.445Z,4.57
2018-12-09T02:37:30.315Z,3.83
2018-12-09T02:40:01.190Z,9.00
2018-12-09T02:42:32.113Z,12.97
2018-12-09T02:45:02.990Z,6.87
2018-12-09T02:47:33.845Z,6.63
2018-12-09T02:50:04.827Z,6.23
2018-12-09T02:52:35.700Z,4.47
2018-12-09T02:55:07.095Z,6.80
2018-12-09T02:57:37.972Z,6.90
2018-12-09T03:00:08.960Z,6.23
2018-12-09T03:02:42.050Z,8.80
2018-12-09T03:05:13.415Z,10.70
2018-12-09T03:07:44.251Z,11.30
2018-12-09T03:10:15.102Z,9.70
2018-12-09T03:12:45.981Z,10.87
2018-12-09T03:15:16.821Z,6.43
2018-12-09T03:17:47.673Z,5.07
2018-12-09T03:20:18.635Z,4.13
2018-12-09T03:22:49.415Z,6.03
2018-12-09T03:25:20.341Z,8.60
2018-12-09T03:27:51.766Z,5.87
2018-12-09T03:30:22.583Z,17.63
2018-12-09T03:32:53.426Z,7.57
2018-12-09T03:35:24.260Z,3.83
2018-12-09T03:37:55.495Z,15.90
2018-12-09T03:40:26.295Z,7.67
2018-12-09T03:42:57.266Z,14.00
2018-12-09T03:45:28.156Z,4.83
2018-12-09T03:47:59.375Z,5.43
2018-12-09T03:50:30.221Z,10.23
2018-12-09T03:53:03.147Z,6.60
2018-12-09T03:55:34.521Z,10.00
2018-12-09T03:58:05.711Z,18.37
2018-12-09T04:00:36.640Z,8.13
2018-12-09T04:03:07.607Z,12.77
2018-12-09T04:05:38.536Z,6.63
2018-12-09T04:08:09.650Z,10.33
2018-12-09T04:10:40.545Z,15.60
2018-12-09T04:13:11.405Z,8.03
2018-12-09T04:15:42.685Z,19.97
2018-12-09T04:18:15.940Z,6.33
2018-12-09T04:20:46.866Z,9.50
2018-12-09T04:23:20.013Z,7.63
2018-12-09T04:25:51.582Z,10.03
2018-12-09T04:28:22.543Z,12.87
2018-12-09T04:30:53.476Z,12.63
2018-12-09T04:33:24.382Z,11.93
2018-12-09T04:35:55.220Z,8.43
2018-12-09T04:38:26.161Z,11.40
2018-12-09T04:40:56.980Z,13.70
2018-12-09T04:43:27.676Z,21.60
2018-12-09T04:45:58.496Z,8.57
2018-12-09T04:48:29.421Z,13.47
2018-12-09T04:51:00.216Z,13.77
2018-12-09T04:53:31.232Z,12.77
2018-12-09T04:56:02.246Z,10.57
2018-12-09T04:58:33.206Z,10.60
2018-12-09T05:01:04.046Z,12.10
2018-12-09T05:03:34.976Z,10.37
2018-12-09T05:06:05.956Z,12.40
2018-12-09T05:08:36.856Z,8.63
2018-12-09T05:11:07.697Z,13.77
2018-12-09T05:13:38.687Z,8.30
2018-12-09T05:16:09.732Z,16.70
2018-12-09T05:18:40.679Z,10.80
2018-12-09T05:21:17.821Z,13.63
2018-12-09T05:23:48.822Z,13.20
2018-12-09T05:26:20.156Z,11.90
2018-12-09T05:28:51.102Z,8.77
2018-12-09T05:31:21.946Z,9.63
2018-12-09T05:33:53.081Z,4.90
2018-12-09T05:36:24.158Z,6.57
2018-12-09T05:38:55.106Z,9.23
2018-12-09T05:41:25.916Z,6.37
2018-12-09T05:43:56.815Z,15.70
2018-12-09T05:46:28.008Z,5.23
2018-12-09T05:48:58.877Z,13.67
2018-12-09T05:51:29.671Z,9.27
2018-12-09T05:54:00.561Z,9.20
2018-12-09T05:56:31.856Z,7.67
2018-12-09T05:59:02.736Z,13.47
2018-12-09T06:01:33.491Z,5.63
2018-12-09T06:04:04.451Z,14.30
2018-12-09T06:06:35.286Z,9.73
2018-12-09T06:09:06.897Z,6.97
2018-12-09T06:11:37.696Z,13.00
2018-12-09T06:14:08.591Z,12.77
2018-12-09T06:16:39.481Z,9.13
2018-12-09T06:19:10.416Z,15.27
2018-12-09T06:21:41.381Z,5.30
2018-12-09T06:24:12.366Z,8.47
2018-12-09T06:26:43.351Z,12.37
2018-12-09T06:29:14.276Z,5.90
2018-12-09T06:31:45.476Z,13.43
2018-12-09T06:34:16.406Z,6.80
2018-12-09T06:36:47.296Z,6.57
2018-12-09T06:39:18.746Z,6.97
2018-12-09T06:41:49.737Z,9.07
2018-12-09T06:44:20.732Z,5.13
2018-12-09T06:46:51.781Z,6.83
2018-12-09T06:49:23.020Z,14.87
2018-12-09T06:51:53.836Z,9.00
2018-12-09T06:54:24.876Z,8.43
2018-12-09T06:56:55.926Z,5.60
2018-12-09T06:59:26.937Z,6.73
2018-12-09T07:01:57.906Z,4.33
2018-12-09T07:04:28.922Z,14.50
2018-12-09T07:07:00.042Z,12.63
2018-12-09T07:09:30.992Z,5.33
2018-12-09T07:12:01.919Z,6.63
2018-12-09T07:14:32.891Z,10.47
2018-12-09T07:17:03.795Z,9.50
2018-12-09T07:19:35.152Z,9.17
2018-12-09T07:22:06.137Z,6.93
2018-12-09T07:24:37.277Z,15.07
2018-12-09T07:27:08.306Z,8.13
2018-12-09T07:29:39.267Z,6.57
2018-12-09T07:32:10.572Z,9.43
2018-12-09T07:34:41.662Z,8.87
2018-12-09T07:37:12.562Z,4.77
2018-12-09T07:39:43.531Z,4.23
2018-12-09T07:42:14.702Z,5.47
2018-12-09T07:44:45.786Z,11.37
2018-12-09T07:47:16.617Z,5.90
2018-12-09T07:49:47.772Z,12.20
2018-12-09T07:52:19.096Z,7.03
2018-12-09T07:54:50.100Z,6.57
2018-12-09T07:57:21.108Z,5.40
2018-12-09T07:59:52.253Z,3.60
2018-12-09T08:02:23.133Z,4.43
2018-12-09T08:04:54.128Z,6.03
2018-12-09T08:07:24.974Z,8.40
2018-12-09T08:09:55.942Z,5.87
2018-12-09T08:12:26.845Z,23.73
2018-12-09T08:14:57.779Z,8.30
2018-12-09T08:17:28.558Z,3.53
2018-12-09T08:19:59.593Z,6.10
2018-12-09T08:22:30.551Z,2.10
2018-12-09T08:25:01.524Z,3.63
2018-12-09T08:27:32.548Z,3.83
2018-12-09T08:30:03.747Z,4.00
2018-12-09T08:32:34.698Z,5.93
2018-12-09T08:35:05.718Z,4.77
2018-12-09T08:37:36.665Z,1.37
2018-12-09T08:40:08.238Z,8.37
2018-12-09T08:42:39.228Z,6.70
2018-12-09T08:45:10.437Z,4.73
2018-12-09T08:47:41.553Z,1.40
2018-12-09T08:50:12.562Z,3.13
2018-12-09T08:52:43.703Z,1.53
2018-12-09T08:55:14.748Z,2.20
2018-12-09T08:57:45.993Z,8.03
2018-12-09T09:00:17.001Z,3.50
2018-12-09T09:02:47.966Z,4.83
2018-12-09T09:05:18.942Z,4.00
2018-12-09T09:07:49.856Z,4.17
2018-12-09T09:10:22.019Z,3.33
2018-12-09T09:12:53.243Z,1.93
2018-12-09T09:15:24.327Z,5.53
2018-12-09T09:17:55.652Z,4.13
2018-12-09T09:20:26.651Z,4.23
2018-12-09T09:22:57.646Z,7.13
2018-12-09T09:25:28.751Z,5.10
2018-12-09T09:27:59.894Z,5.63
2018-12-09T09:30:31.172Z,1.90
2018-12-09T09:33:02.037Z,5.93
2018-12-09T09:35:33.041Z,1.47
2018-12-09T09:38:04.226Z,8.03
2018-12-09T09:40:35.172Z,2.03
2018-12-09T09:43:06.211Z,7.10
2018-12-09T09:45:38.353Z,2.40
2018-12-09T09:48:10.191Z,3.30
2018-12-09T09:50:41.381Z,8.77
2018-12-09T09:53:12.336Z,1.80
2018-12-09T09:55:44.888Z,5.27
2018-12-09T09:58:16.156Z,7.73
2018-12-09T10:00:47.066Z,7.03
2018-12-09T10:03:25.723Z,9.40
2018-12-09T10:05:51.250Z,3.40
2018-12-09T10:08:22.455Z,3.50
2018-12-09T10:10:53.476Z,6.07
2018-12-09T10:13:24.989Z,4.00
2018-12-09T10:15:56.085Z,9.80
2018-12-09T10:18:26.953Z,4.93
2018-12-09T10:20:58.017Z,6.77
2018-12-09T10:23:29.591Z,2.67
2018-12-09T10:26:00.950Z,5.43
2018-12-09T10:28:32.196Z,5.53
2018-12-09T10:31:03.125Z,6.83
2018-12-09T10:33:33.961Z,7.17
2018-12-09T10:36:04.950Z,9.10
2018-12-09T10:38:36.035Z,6.17
2018-12-09T10:41:07.015Z,7.37
2018-12-09T10:43:38.015Z,9.47
2018-12-09T10:46:09.227Z,7.13
2018-12-09T10:48:40.270Z,5.90
2018-12-09T10:51:11.265Z,4.17
2018-12-09T10:53:42.180Z,3.00
2018-12-09T10:56:13.223Z,6.50
2018-12-09T10:58:44.226Z,9.50
2018-12-09T11:01:20.266Z,3.13
2018-12-09T11:03:52.646Z,5.43
2018-12-09T11:06:23.991Z,4.67
2018-12-09T11:08:55.107Z,4.30
2018-12-09T11:11:26.166Z,8.10
2018-12-09T11:13:58.232Z,9.43
2018-12-09T11:16:29.466Z,7.33
2018-12-09T11:19:00.707Z,10.60
2018-12-09T11:21:31.816Z,2.23
2018-12-09T11:24:02.812Z,4.23
2018-12-09T11:26:34.166Z,3.70
2018-12-09T11:29:05.247Z,5.47
2018-12-09T11:31:36.398Z,6.67
2018-12-09T11:34:07.407Z,7.20
2018-12-09T11:36:38.659Z,6.23
2018-12-09T11:39:10.049Z,8.53
2018-12-09T11:41:41.127Z,12.43
2018-12-09T11:44:12.107Z,9.60
2018-12-09T11:46:43.669Z,8.77
2018-12-09T11:49:15.087Z,9.07
2018-12-09T11:51:46.092Z,5.03
2018-12-09T11:54:17.056Z,8.60
2018-12-09T11:56:48.323Z,6.80
2018-12-09T11:59:19.444Z,8.33
2018-12-09T12:01:53.163Z,3.47
2018-12-09T12:04:24.022Z,7.13
2018-12-09T12:06:55.257Z,12.67
2018-12-09T12:09:26.377Z,8.63
2018-12-09T12:11:57.327Z,11.50
2018-12-09T12:14:28.742Z,21.60
2018-12-09T12:16:59.928Z,8.77
2018-12-09T12:19:31.117Z,11.70
2018-12-09T12:22:02.242Z,5.80
2018-12-09T12:24:33.393Z,5.97
2018-12-09T12:27:04.993Z,4.70
2018-12-09T12:29:36.010Z,10.67
2018-12-09T12:32:07.053Z,7.20
2018-12-09T12:34:37.963Z,6.13
2018-12-09T12:37:09.093Z,5.20
2018-12-09T12:39:40.002Z,7.23
2018-12-09T12:42:11.253Z,8.20
2018-12-09T12:44:42.248Z,11.30
2018-12-09T12:47:13.587Z,3.43
2018-12-09T12:49:44.587Z,5.53
2018-12-09T12:52:15.847Z,11.10
2018-12-09T12:54:47.038Z,7.63
2018-12-09T12:57:19.237Z,8.23
2018-12-09T12:59:50.188Z,4.90
2018-12-09T13:02:21.238Z,9.10
2018-12-09T13:04:52.047Z,11.23
2018-12-09T13:07:23.552Z,4.13
2018-12-09T13:09:54.438Z,10.63
2018-12-09T13:12:25.297Z,5.40
2018-12-09T13:14:56.222Z,7.47
2018-12-09T13:17:28.330Z,5.93
2018-12-09T13:19:59.127Z,6.40
2018-12-09T13:22:30.053Z,6.43
2018-12-09T13:25:01.182Z,2.67
2018-12-09T13:27:32.197Z,4.53
2018-12-09T13:30:03.287Z,12.73
2018-12-09T13:32:34.362Z,12.33
2018-12-09T13:35:05.347Z,4.53
2018-12-09T13:37:36.537Z,7.63
2018-12-09T13:40:07.572Z,2.80
2018-12-09T13:42:39.232Z,12.30
2018-12-09T13:45:11.177Z,6.07
2018-12-09T13:47:43.057Z,6.40
2018-12-09T13:50:14.112Z,7.07
2018-12-09T13:52:45.098Z,6.50
2018-12-09T13:55:16.429Z,9.50
2018-12-09T13:57:47.935Z,9.97
2018-12-09T14:00:20.593Z,7.53
2018-12-09T14:02:51.642Z,11.50
2018-12-09T14:05:22.912Z,10.50
2018-12-09T14:07:54.262Z,7.27
2018-12-09T14:10:25.507Z,15.77
2018-12-09T14:12:56.582Z,9.03
2018-12-09T14:15:27.727Z,15.27
2018-12-09T14:17:58.954Z,11.83
2018-12-09T14:20:29.988Z,5.43
2018-12-09T14:23:00.897Z,18.67
2018-12-09T14:25:31.928Z,5.80
2018-12-09T14:28:03.417Z,17.80
2018-12-09T14:30:34.872Z,10.70
2018-12-09T14:33:06.278Z,13.33
2018-12-09T14:35:37.292Z,4.97
2018-12-09T14:38:08.239Z,16.47
2018-12-09T14:40:39.149Z,11.80
2018-12-09T14:43:10.197Z,17.73
2018-12-09T14:45:48.724Z,11.87
2018-12-09T14:48:14.368Z,11.90
2018-12-09T14:50:45.582Z,16.20
2018-12-09T14:53:16.719Z,32.13
2018-12-09T14:55:47.874Z,31.10
2018-12-09T14:58:18.773Z,12.63
2018-12-09T15:00:49.988Z,26.37
2018-12-09T15:03:21.107Z,17.13
2018-12-09T15:05:52.122Z,16.67
2018-12-09T15:08:23.542Z,23.30
2018-12-09T15:10:54.807Z,18.03
2018-12-09T15:13:25.885Z,16.93
2018-12-09T15:15:57.059Z,27.43
2018-12-09T15:18:28.212Z,22.30
2018-12-09T15:21:00.494Z,28.10
2018-12-09T15:23:31.693Z,27.10
2018-12-09T15:26:02.704Z,27.60
2018-12-09T15:28:34.007Z,33.83
2018-12-09T15:31:05.473Z,32.73
2018-12-09T15:33:36.497Z,20.47
2018-12-09T15:36:07.527Z,34.60
2018-12-09T15:38:38.518Z,30.50
2018-12-09T15:41:09.773Z,21.00
2018-12-09T15:43:40.746Z,24.57
2018-12-09T15:46:12.217Z,16.47
2018-12-09T15:48:43.277Z,15.63
2018-12-09T15:51:14.847Z,19.33
2018-12-09T15:53:45.942Z,11.90
2018-12-09T15:56:16.938Z,8.30
2018-12-09T15:58:48.162Z,12.40
2018-12-09T16:01:19.263Z,7.57
2018-12-09T16:03:50.363Z,10.67
2018-12-09T16:06:21.454Z,6.27
2018-12-09T16:08:52.965Z,19.60
2018-12-09T16:11:24.017Z,6.27
2018-12-09T16:13:55.220Z,13.33
2018-12-09T16:16:26.068Z,17.53
2018-12-09T16:18:57.013Z,14.03
2018-12-09T16:21:28.162Z,18.90
2018-12-09T16:23:59.472Z,12.77
2018-12-09T16:26:30.732Z,16.30
2018-12-09T16:29:02.807Z,9.60
2018-12-09T16:31:33.987Z,11.77
2018-12-09T16:34:05.077Z,14.83
2018-12-09T16:36:36.426Z,14.03
2018-12-09T16:39:08.807Z,10.37
2018-12-09T16:41:39.797Z,14.93
2018-12-09T16:44:10.807Z,14.10
2018-12-09T16:46:41.752Z,13.63
2018-12-09T16:49:12.762Z,11.07
2018-12-09T16:51:43.727Z,15.77
2018-12-09T16:54:14.892Z,7.97
2018-12-09T16:56:45.787Z,9.07
2018-12-09T16:59:17.205Z,8.73
2018-12-09T17:01:48.230Z,9.60
2018-12-09T17:04:19.172Z,15.47
2018-12-09T17:06:50.108Z,6.03
2018-12-09T17:09:21.082Z,6.90
2018-12-09T17:11:52.028Z,9.67
2018-12-09T17:14:22.937Z,17.53
2018-12-09T17:16:53.887Z,18.30
2018-12-09T17:19:24.907Z,22.90
2018-12-09T17:21:55.757Z,14.17
2018-12-09T17:24:26.732Z,32.27
2018-12-09T17:26:57.907Z,23.97
2018-12-09T17:29:29.052Z,23.27
2018-12-09T17:32:00.397Z,26.77
2018-12-09T17:34:31.493Z,23.53
2018-12-09T17:37:02.892Z,21.43
2018-12-09T17:39:34.323Z,37.73
2018-12-09T17:42:05.220Z,53.40
2018-12-09T17:44:36.568Z,41.57
2018-12-09T17:47:07.447Z,40.60
2018-12-09T17:49:38.532Z,27.60
2018-12-09T17:52:09.405Z,29.50
2018-12-09T17:54:40.557Z,21.17
2018-12-09T17:57:11.747Z,25.07
2018-12-09T17:59:42.613Z,26.93
2018-12-09T18:02:14.023Z,12.57
2018-12-09T18:04:45.317Z,13.67
2018-12-09T18:07:16.158Z,15.70
2018-12-09T18:09:47.247Z,19.03
2018-12-09T18:12:18.417Z,36.20
2018-12-09T18:14:49.714Z,31.13
2018-12-09T18:17:20.867Z,17.83
2018-12-09T18:19:52.003Z,26.57
2018-12-09T18:22:22.913Z,21.17
2018-12-09T18:24:53.823Z,22.50
2018-12-09T18:27:25.177Z,26.47
2018-12-09T18:29:57.077Z,28.33
2018-12-09T18:32:28.557Z,19.23
2018-12-09T18:34:59.778Z,22.17
2018-12-09T18:37:30.663Z,26.07
2018-12-09T18:40:02.012Z,22.77
2018-12-09T18:42:34.038Z,13.63
2018-12-09T18:45:05.322Z,31.27
2018-12-09T18:47:36.312Z,33.03
2018-12-09T18:50:07.792Z,21.40
2018-12-09T18:52:38.738Z,32.63
2018-12-09T18:55:10.162Z,38.00
2018-12-09T18:57:41.137Z,25.83
2018-12-09T19:00:12.197Z,38.77
2018-12-09T19:02:43.385Z,24.97
2018-12-09T19:05:14.472Z,48.33
2018-12-09T19:07:45.590Z,24.10
2018-12-09T19:10:16.720Z,34.60
2018-12-09T19:12:47.885Z,30.53
2018-12-09T19:15:19.088Z,27.10
2018-12-09T19:17:50.143Z,31.93
2018-12-09T19:20:21.524Z,30.13
2018-12-09T19:22:53.663Z,26.63
2018-12-09T19:25:24.758Z,17.67
2018-12-09T19:27:56.437Z,42.53
2018-12-09T19:30:27.561Z,30.97
2018-12-09T19:33:00.378Z,23.23
2018-12-09T19:35:31.343Z,31.47
2018-12-09T19:38:02.278Z,29.27
2018-12-09T19:40:33.838Z,16.60
2018-12-09T19:43:05.153Z,17.00
2018-12-09T19:45:36.733Z,24.23
2018-12-09T19:48:07.768Z,21.23
2018-12-09T19:50:39.009Z,22.83
2018-12-09T19:53:09.933Z,31.37
2018-12-09T19:55:40.976Z,23.30
2018-12-09T19:58:11.812Z,20.03
2018-12-09T20:00:42.803Z,26.87
2018-12-09T20:03:13.858Z,21.57
2018-12-09T20:05:44.948Z,23.60
2018-12-09T20:08:16.248Z,15.90
2018-12-09T20:10:47.433Z,28.83
2018-12-09T20:13:18.533Z,23.63
2018-12-09T20:15:49.548Z,19.30
2018-12-09T20:18:20.763Z,19.30
2018-12-09T20:20:52.178Z,25.33
2018-12-09T20:23:23.117Z,25.37
2018-12-09T20:25:55.176Z,15.97
2018-12-09T20:28:26.763Z,20.47
2018-12-09T20:30:57.963Z,23.70
2018-12-09T20:33:29.268Z,16.03
2018-12-09T20:36:00.083Z,12.73
2018-12-09T20:38:31.022Z,17.73
2018-12-09T20:41:02.017Z,22.50
2018-12-09T20:43:33.042Z,20.13
2018-12-09T20:46:04.172Z,13.27
2018-12-09T20:48:35.162Z,18.17
2018-12-09T20:51:06.087Z,17.60
2018-12-09T20:53:37.017Z,15.37
2018-12-09T20:56:08.047Z,15.33
2018-12-09T20:58:39.167Z,20.07
2018-12-09T21:01:10.088Z,13.77
2018-12-09T21:03:41.029Z,15.37
2018-12-09T21:06:12.047Z,16.57
2018-12-09T21:08:43.162Z,23.90
2018-12-09T21:11:14.629Z,23.17
2018-12-09T21:13:45.827Z,27.63
2018-12-09T21:16:17.132Z,15.23
2018-12-09T21:18:48.307Z,18.77
2018-12-09T21:21:19.302Z,17.30
2018-12-09T21:23:50.243Z,20.77
2018-12-09T21:26:21.132Z,20.83
2018-12-09T21:28:52.897Z,23.00
2018-12-09T21:31:24.439Z,18.57
2018-12-09T21:33:56.583Z,18.43
2018-12-09T21:36:27.752Z,16.60
2018-12-09T21:38:59.064Z,16.17
2018-12-09T21:41:30.618Z,22.17
2018-12-09T21:44:02.102Z,17.93
2018-12-09T21:46:33.512Z,22.20
2018-12-09T21:49:04.957Z,21.27
2018-12-09T21:51:36.345Z,43.93
2018-12-09T21:54:07.453Z,21.90
2018-12-09T21:56:38.512Z,17.40
2018-12-09T21:59:09.442Z,27.20
2018-12-09T22:01:40.472Z,19.73
2018-12-09T22:04:11.317Z,18.93
2018-12-09T22:06:42.331Z,17.10
2018-12-09T22:09:13.573Z,25.37
2018-12-09T22:11:44.952Z,17.70
2018-12-09T22:14:15.763Z,22.57
2018-12-09T22:16:46.928Z,14.40
2018-12-09T22:19:17.802Z,16.20
2018-12-09T22:21:48.843Z,13.33
2018-12-09T22:24:19.743Z,13.27
2018-12-09T22:26:50.683Z,11.77
2018-12-09T22:29:22.197Z,15.33
2018-12-09T22:31:53.173Z,18.27
2018-12-09T22:34:24.193Z,9.97
2018-12-09T22:36:55.152Z,12.80
2018-12-09T22:39:25.977Z,15.67
2018-12-09T22:41:56.902Z,16.57
2018-12-09T22:44:27.852Z,10.07
2018-12-09T22:46:58.827Z,9.87
2018-12-09T22:49:29.732Z,15.17
2018-12-09T22:52:00.712Z,15.07
2018-12-09T22:54:31.606Z,11.03
2018-12-09T22:57:02.676Z,11.83
2018-12-09T22:59:33.957Z,11.57
2018-12-09T23:02:09.997Z,15.97
2018-12-09T23:04:40.976Z,18.63
2018-12-09T23:07:16.922Z,11.47
2018-12-09T23:09:49.021Z,16.80
2018-12-09T23:12:19.993Z,8.97
2018-12-09T23:14:50.811Z,8.43
2018-12-09T23:17:21.796Z,11.87
2018-12-09T23:19:52.736Z,7.97
2018-12-09T23:22:23.816Z,9.63
2018-12-09T23:24:54.731Z,16.73
2018-12-09T23:27:25.639Z,6.63
2018-12-09T23:29:56.755Z,9.30
2018-12-09T23:32:27.671Z,13.77
2018-12-09T23:34:58.625Z,12.47
2018-12-09T23:37:29.706Z,14.43
2018-12-09T23:40:00.531Z,11.97
2018-12-09T23:42:31.431Z,7.30
2018-12-09T23:45:02.310Z,7.67
2018-12-09T23:47:33.206Z,12.13
2018-12-09T23:50:04.206Z,5.87
2018-12-09T23:52:35.106Z,8.57
2018-12-09T23:55:06.081Z,13.67
2018-12-09T23:57:36.960Z,7.93
